createdAt,value
2022-09-13T00:04:29.904Z,15.79
2022-09-13T00:09:33.380Z,15.70
2022-09-13T00:14:37.326Z,15.69
2022-09-13T00:19:40.270Z,15.65
2022-09-13T00:24:43.965Z,15.56
2022-09-13T00:29:47.418Z,15.59
2022-09-13T00:34:50.328Z,15.50
2022-09-13T00:39:54.142Z,15.44
2022-09-13T00:45:07.161Z,15.42
2022-09-13T00:50:16.410Z,15.39
2022-09-13T00:55:26.104Z,15.27
2022-09-13T01:00:29.943Z,15.13
2022-09-13T01:05:43.309Z,15.05
2022-09-13T01:10:47.929Z,15.01
2022-09-13T01:15:52.270Z,14.92
2022-09-13T01:21:26.522Z,14.80
2022-09-13T01:26:52.897Z,14.66
2022-09-13T01:32:19.527Z,14.54
2022-09-13T01:37:42.515Z,14.46
2022-09-13T01:43:06.926Z,14.53
2022-09-13T01:48:23.197Z,14.53
2022-09-13T01:53:32.448Z,14.66
2022-09-13T01:59:01.698Z,14.74
2022-09-13T02:04:36.923Z,14.88
2022-09-13T02:09:45.171Z,14.98
2022-09-13T02:15:21.046Z,15.01
2022-09-13T02:20:31.199Z,14.98
2022-09-13T02:25:38.836Z,14.90
2022-09-13T02:30:50.393Z,14.84
2022-09-13T02:36:00.041Z,14.80
2022-09-13T02:41:29.878Z,14.69
2022-09-13T02:46:35.842Z,14.65
2022-09-13T02:51:55.849Z,14.55
2022-09-13T02:57:08.942Z,14.38
2022-09-13T03:02:19.550Z,14.21
2022-09-13T03:07:23.314Z,14.14
2022-09-13T03:12:44.219Z,14.13
2022-09-13T03:18:21.591Z,14.07
2022-09-13T03:23:47.071Z,14.02
2022-09-13T03:29:15.410Z,13.91
2022-09-13T03:34:44.587Z,13.79
2022-09-13T03:40:13.987Z,13.66
2022-09-13T03:45:22.249Z,13.65
2022-09-13T03:50:27.062Z,13.60
2022-09-13T03:55:33.742Z,13.57
2022-09-13T04:00:38.793Z,13.58
2022-09-13T04:05:42.428Z,13.49
2022-09-13T04:10:45.991Z,13.69
2022-09-13T04:15:50.748Z,13.40
2022-09-13T04:21:00.733Z,13.31
2022-09-13T04:26:06.483Z,13.27
2022-09-13T04:31:09.983Z,13.18
2022-09-13T04:36:13.872Z,13.16
2022-09-13T04:41:17.760Z,13.02
2022-09-13T04:46:21.391Z,13.18
2022-09-13T04:51:25.502Z,13.21
2022-09-13T04:56:28.907Z,13.34
2022-09-13T05:01:32.473Z,13.52
2022-09-13T05:06:36.542Z,13.69
2022-09-13T05:11:40.187Z,13.94
2022-09-13T05:16:44.332Z,14.15
2022-09-13T05:21:47.979Z,14.42
2022-09-13T05:26:51.437Z,14.74
2022-09-13T05:31:54.910Z,15.07
2022-09-13T05:36:58.226Z,15.42
2022-09-13T05:42:01.705Z,15.63
2022-09-13T05:47:06.232Z,16.03
2022-09-13T05:52:09.553Z,16.62
2022-09-13T05:57:13.095Z,17.34
2022-09-13T06:02:16.613Z,18.30
2022-09-13T06:07:19.993Z,20.80
2022-09-13T06:12:23.565Z,23.78
2022-09-13T06:17:26.980Z,25.74
2022-09-13T06:22:33.476Z,22.96
2022-09-13T06:27:37.480Z,21.30
2022-09-13T06:32:41.178Z,22.35
2022-09-13T06:37:45.562Z,21.97
2022-09-13T06:42:48.819Z,22.34
2022-09-13T06:47:56.395Z,25.32
2022-09-13T06:52:59.509Z,26.06
2022-09-13T06:58:03.354Z,23.18
2022-09-13T07:03:07.273Z,22.42
2022-09-13T07:08:10.653Z,21.70
2022-09-13T07:13:13.985Z,22.57
2022-09-13T07:18:16.800Z,21.62
2022-09-13T07:23:20.195Z,21.09
2022-09-13T07:28:27.222Z,21.03
2022-09-13T07:33:31.080Z,21.04
2022-09-13T07:38:36.755Z,21.08
2022-09-13T07:43:41.051Z,24.83
2022-09-13T07:48:46.025Z,22.87
2022-09-13T07:53:56.478Z,22.25
2022-09-13T07:59:02.389Z,23.17
2022-09-13T08:04:11.472Z,22.56
2022-09-13T08:09:16.078Z,21.96
2022-09-13T08:14:22.450Z,22.15
2022-09-13T08:19:26.050Z,24.21
2022-09-13T08:24:29.611Z,26.11
2022-09-13T08:29:33.418Z,26.63
2022-09-13T08:34:37.337Z,27.66
2022-09-13T08:39:41.379Z,27.48
2022-09-13T08:44:49.504Z,27.82
2022-09-13T08:50:00.703Z,28.01
2022-09-13T08:55:40.791Z,28.69
2022-09-13T09:00:51.759Z,29.86
2022-09-13T09:05:55.411Z,28.56
2022-09-13T09:11:04.735Z,29.54
2022-09-13T09:16:36.423Z,27.88
2022-09-13T09:21:40.558Z,26.67
2022-09-13T09:26:44.155Z,26.41
2022-09-13T09:32:21.880Z,25.15
2022-09-13T09:37:28.238Z,24.47
2022-09-13T09:42:42.057Z,24.35
2022-09-13T09:47:48.080Z,24.69
2022-09-13T09:53:17.259Z,25.34
2022-09-13T09:58:43.559Z,25.57
2022-09-13T10:04:08.848Z,26.80
2022-09-13T10:09:15.186Z,26.98
2022-09-13T10:15:00.371Z,25.65
2022-09-13T10:20:21.735Z,26.07
2022-09-13T10:25:27.351Z,27.16
2022-09-13T10:30:39.320Z,27.06
2022-09-13T10:35:49.249Z,26.76
2022-09-13T10:40:52.525Z,27.56
2022-09-13T10:45:57.039Z,26.78
2022-09-13T10:51:21.475Z,26.94
2022-09-13T10:56:27.892Z,27.29
2022-09-13T11:01:49.203Z,28.16
2022-09-13T11:07:31.270Z,28.75
2022-09-13T11:12:58.659Z,28.56
2022-09-13T11:18:33.120Z,28.46
2022-09-13T11:24:04.458Z,29.41
2022-09-13T11:29:15.031Z,29.64
2022-09-13T11:34:21.600Z,29.82
2022-09-13T11:40:00.226Z,29.33
2022-09-13T11:45:19.447Z,29.76
2022-09-13T11:50:53.673Z,30.27
2022-09-13T11:56:02.532Z,29.61
2022-09-13T12:01:11.355Z,29.57
2022-09-13T12:06:22.746Z,29.34
2022-09-13T12:11:35.497Z,29.38
2022-09-13T12:16:44.445Z,29.56
2022-09-13T12:21:49.404Z,29.90
2022-09-13T12:27:01.900Z,29.97
2022-09-13T12:32:08.173Z,30.16
2022-09-13T12:37:32.859Z,30.80
2022-09-13T12:43:08.492Z,30.91
2022-09-13T12:48:29.158Z,30.71
2022-09-13T12:54:00.584Z,29.95
2022-09-13T12:59:23.715Z,30.99
2022-09-13T13:04:33.236Z,30.00
2022-09-13T13:09:53.186Z,30.51
2022-09-13T13:14:57.164Z,30.71
2022-09-13T13:20:00.414Z,30.17
2022-09-13T13:25:31.818Z,29.83
2022-09-13T13:30:42.326Z,30.13
2022-09-13T13:35:46.531Z,29.95
2022-09-13T13:40:51.266Z,30.55
2022-09-13T13:46:13.082Z,31.50
2022-09-13T13:51:23.042Z,31.71
2022-09-13T13:56:46.453Z,29.66
2022-09-13T14:01:55.233Z,29.81
2022-09-13T14:07:09.475Z,30.00
2022-09-13T14:12:59.545Z,30.17
2022-09-13T14:18:38.375Z,29.61
2022-09-13T14:23:41.967Z,29.88
2022-09-13T14:28:45.618Z,30.40
2022-09-13T14:33:49.846Z,30.39
2022-09-13T14:38:59.473Z,31.38
2022-09-13T14:44:28.481Z,31.13
2022-09-13T14:49:38.068Z,30.68
2022-09-13T14:54:51.263Z,30.18
2022-09-13T14:59:59.169Z,30.36
2022-09-13T15:05:08.831Z,29.21
2022-09-13T15:10:18.109Z,29.14
2022-09-13T15:15:28.792Z,28.71
2022-09-13T15:20:52.720Z,29.06
2022-09-13T15:26:22.739Z,27.94
2022-09-13T15:31:29.049Z,27.75
2022-09-13T15:36:34.549Z,27.53
2022-09-13T15:41:40.740Z,27.48
2022-09-13T15:46:52.543Z,26.98
2022-09-13T15:52:03.456Z,26.61
2022-09-13T15:57:10.734Z,25.68
2022-09-13T16:02:33.456Z,25.74
2022-09-13T16:07:37.908Z,24.95
2022-09-13T16:12:41.812Z,24.24
2022-09-13T16:17:46.218Z,23.83
2022-09-13T16:22:50.213Z,23.24
2022-09-13T16:27:55.709Z,22.90
2022-09-13T16:33:00.547Z,22.45
2022-09-13T16:38:05.387Z,21.98
2022-09-13T16:43:10.263Z,21.73
2022-09-13T16:48:14.054Z,21.40
2022-09-13T16:53:18.604Z,21.18
2022-09-13T16:58:22.177Z,20.88
2022-09-13T17:03:25.976Z,20.63
2022-09-13T17:08:29.542Z,20.32
2022-09-13T17:13:32.594Z,20.03
2022-09-13T17:18:36.389Z,19.83
2022-09-13T17:23:40.214Z,19.57
2022-09-13T17:28:43.732Z,19.30
2022-09-13T17:33:47.489Z,19.27
2022-09-13T17:38:55.595Z,19.28
2022-09-13T17:43:59.353Z,19.33
2022-09-13T17:49:02.617Z,19.54
2022-09-13T17:54:10.003Z,19.65
2022-09-13T17:59:52.129Z,19.68
2022-09-13T18:04:56.283Z,19.54
2022-09-13T18:10:00.092Z,19.25
2022-09-13T18:15:04.320Z,19.15
2022-09-13T18:20:08.069Z,19.23
2022-09-13T18:25:11.576Z,19.25
2022-09-13T18:30:15.542Z,19.24
2022-09-13T18:35:18.442Z,19.22
2022-09-13T18:40:23.306Z,19.17
2022-09-13T18:45:26.949Z,19.12
2022-09-13T18:50:30.626Z,18.98
2022-09-13T18:55:39.798Z,18.94
2022-09-13T19:00:43.543Z,18.82
2022-09-13T19:05:47.362Z,18.71
2022-09-13T19:10:50.886Z,18.62
2022-09-13T19:15:59.384Z,18.61
2022-09-13T19:21:08.916Z,18.61
2022-09-13T19:26:14.476Z,18.66
2022-09-13T19:31:18.097Z,18.59
2022-09-13T19:36:29.751Z,18.62
2022-09-13T19:41:38.679Z,18.57
2022-09-13T19:46:44.429Z,18.44
2022-09-13T19:51:52.133Z,18.29
2022-09-13T19:56:56.124Z,18.08
2022-09-13T20:02:00.364Z,17.98
2022-09-13T20:07:04.200Z,17.74
2022-09-13T20:12:09.201Z,17.50
2022-09-13T20:17:12.629Z,17.29
2022-09-13T20:22:16.502Z,17.24
2022-09-13T20:27:19.930Z,17.10
2022-09-13T20:32:23.786Z,17.07
2022-09-13T20:37:27.500Z,17.17
2022-09-13T20:42:31.029Z,17.24
2022-09-13T20:47:38.578Z,17.12
2022-09-13T20:52:41.928Z,17.05
2022-09-13T20:57:46.715Z,16.90
2022-09-13T21:02:50.372Z,16.74
2022-09-13T21:08:12.824Z,16.61
2022-09-13T21:13:16.273Z,16.36
2022-09-13T21:18:19.835Z,16.23
2022-09-13T21:23:23.872Z,16.07
2022-09-13T21:28:27.123Z,15.87
2022-09-13T21:33:30.704Z,15.65
2022-09-13T21:38:36.432Z,15.56
2022-09-13T21:43:40.088Z,15.34
2022-09-13T21:48:45.700Z,15.18
2022-09-13T21:53:57.593Z,15.09
2022-09-13T21:59:06.558Z,14.99
2022-09-13T22:04:17.332Z,15.01
2022-09-13T22:09:22.450Z,14.97
2022-09-13T22:14:26.827Z,14.90
2022-09-13T22:19:31.876Z,14.80
2022-09-13T22:24:36.823Z,14.75
2022-09-13T22:29:41.500Z,14.68
2022-09-13T22:34:44.796Z,14.60
2022-09-13T22:39:49.086Z,14.47
2022-09-13T22:44:52.895Z,14.43
2022-09-13T22:49:55.999Z,14.35
2022-09-13T22:54:59.798Z,14.29
2022-09-13T23:00:04.205Z,14.31
2022-09-13T23:05:07.315Z,14.28
2022-09-13T23:10:11.176Z,14.18
2022-09-13T23:15:14.920Z,14.15
2022-09-13T23:20:20.640Z,14.30
2022-09-13T23:25:24.029Z,14.29
2022-09-13T23:30:27.852Z,14.23
2022-09-13T23:35:30.689Z,14.32
2022-09-13T23:40:36.262Z,14.28
2022-09-13T23:45:39.769Z,14.41
2022-09-13T23:50:43.238Z,14.41
2022-09-13T23:55:47.807Z,14.39
